createdAt,value
2023-04-02T00:00:35.459Z,9.10
2023-04-02T00:03:05.287Z,9.10
2023-04-02T00:08:23.896Z,9.09
2023-04-02T00:10:59.901Z,9.06
2023-04-02T00:13:33.167Z,9.05
2023-04-02T00:16:03.487Z,9.05
2023-04-02T00:18:34.568Z,9.03
2023-04-02T00:21:18.307Z,9.02
2023-04-02T00:23:46.518Z,9.02
2023-04-02T00:26:25.504Z,9.02
2023-04-02T00:28:54.424Z,9.02
2023-04-02T00:31:24.351Z,9.01
2023-04-02T00:33:53.650Z,9.00
2023-04-02T00:36:22.427Z,8.98
2023-04-02T00:38:52.317Z,8.98
2023-04-02T00:41:22.775Z,8.97
2023-04-02T00:43:57.815Z,8.96
2023-04-02T00:46:30.841Z,8.93
2023-04-02T00:49:10.860Z,8.91
2023-04-02T00:51:42.861Z,8.90
2023-04-02T00:54:15.947Z,8.90
2023-04-02T00:56:49.717Z,8.89
2023-04-02T00:59:20.527Z,8.89
2023-04-02T01:01:54.421Z,8.88
2023-04-02T01:04:31.705Z,8.88
2023-04-02T01:07:05.327Z,8.87
2023-04-02T01:09:43.096Z,8.87
2023-04-02T01:12:26.388Z,8.87
2023-04-02T01:15:09.855Z,8.87
2023-04-02T01:17:49.067Z,8.87
2023-04-02T01:20:36.736Z,8.87
2023-04-02T01:23:10.649Z,8.87
2023-04-02T01:25:49.852Z,8.88
2023-04-02T01:28:46.087Z,8.88
2023-04-02T01:31:14.530Z,8.88
2023-04-02T01:33:42.787Z,8.87
2023-04-02T01:36:23.537Z,8.87
2023-04-02T01:39:02.325Z,8.88
2023-04-02T01:41:59.600Z,8.89
2023-04-02T01:44:31.373Z,8.88
2023-04-02T01:47:03.957Z,8.88
2023-04-02T01:49:32.287Z,8.88
2023-04-02T01:52:00.830Z,8.87
2023-04-02T01:54:33.106Z,8.86
2023-04-02T01:57:01.711Z,8.86
2023-04-02T01:59:33.413Z,8.84
2023-04-02T02:02:04.977Z,8.82
2023-04-02T02:04:34.574Z,8.81
2023-04-02T02:07:03.100Z,8.81
2023-04-02T02:09:34.711Z,8.80
2023-04-02T02:12:03.722Z,8.79
2023-04-02T02:14:31.930Z,8.78
2023-04-02T02:17:02.449Z,8.79
2023-04-02T02:19:39.227Z,8.79
2023-04-02T02:22:12.648Z,8.79
2023-04-02T02:24:41.239Z,8.79
2023-04-02T02:27:24.450Z,8.78
2023-04-02T02:30:02.564Z,8.78
2023-04-02T02:32:33.169Z,8.76
2023-04-02T02:35:07.952Z,8.74
2023-04-02T02:37:38.958Z,8.72
2023-04-02T02:40:13.069Z,8.72
2023-04-02T02:42:44.402Z,8.71
2023-04-02T02:45:16.092Z,8.71
2023-04-02T02:47:45.132Z,8.71
2023-04-02T02:50:24.600Z,8.70
2023-04-02T02:52:55.696Z,8.69
2023-04-02T02:55:34.978Z,8.69
2023-04-02T02:58:10.713Z,8.69
2023-04-02T03:00:45.816Z,8.68
2023-04-02T03:03:18.185Z,8.68
2023-04-02T03:05:52.604Z,8.69
2023-04-02T03:08:46.150Z,8.68
2023-04-02T03:11:54.999Z,8.69
2023-04-02T03:14:52.408Z,8.67
2023-04-02T03:17:57.789Z,8.65
2023-04-02T03:20:35.064Z,8.63
2023-04-02T03:23:19.312Z,8.63
2023-04-02T03:25:53.256Z,8.62
2023-04-02T03:28:23.788Z,8.61
2023-04-02T03:30:56.229Z,8.61
2023-04-02T03:33:45.477Z,8.62
2023-04-02T03:36:21.840Z,8.63
2023-04-02T03:39:15.348Z,8.64
2023-04-02T03:41:53.432Z,8.63
2023-04-02T03:44:26.356Z,8.64
2023-04-02T03:47:00.812Z,8.65
2023-04-02T03:49:57.904Z,8.65
2023-04-02T03:52:27.407Z,8.65
2023-04-02T03:54:58.928Z,8.66
2023-04-02T03:57:32.213Z,8.65
2023-04-02T04:00:17.408Z,8.64
2023-04-02T04:03:16.662Z,8.63
2023-04-02T04:05:50.374Z,8.63
2023-04-02T04:08:33.302Z,8.64
2023-04-02T04:11:04.223Z,8.64
2023-04-02T04:13:37.274Z,8.65
2023-04-02T04:16:30.114Z,8.65
2023-04-02T04:19:08.309Z,8.65
2023-04-02T04:21:39.898Z,8.65
2023-04-02T04:24:22.044Z,8.66
2023-04-02T04:26:55.581Z,8.67
2023-04-02T04:29:38.299Z,8.67
2023-04-02T04:32:27.823Z,8.67
2023-04-02T04:35:08.332Z,8.68
2023-04-02T04:37:38.619Z,8.69
2023-04-02T04:40:23.073Z,8.69
2023-04-02T04:42:54.511Z,8.69
2023-04-02T04:45:26.243Z,8.68
2023-04-02T04:47:57.347Z,8.69
2023-04-02T04:50:37.914Z,8.68
2023-04-02T04:53:07.970Z,8.68
2023-04-02T04:56:12.520Z,8.68
2023-04-02T04:59:18.033Z,8.67
2023-04-02T05:02:15.269Z,8.66
2023-04-02T05:04:48.471Z,8.66
2023-04-02T05:07:28.864Z,8.66
2023-04-02T05:10:28.702Z,8.65
2023-04-02T05:13:11.448Z,8.63
2023-04-02T05:16:24.112Z,8.63
2023-04-02T05:18:55.977Z,8.65
2023-04-02T05:22:04.781Z,8.65
2023-04-02T05:24:52.912Z,8.64
2023-04-02T05:27:27.184Z,8.62
2023-04-02T05:30:06.540Z,8.63
2023-04-02T05:32:37.157Z,8.63
2023-04-02T05:35:06.961Z,8.63
2023-04-02T05:37:38.671Z,8.62
2023-04-02T05:40:19.929Z,8.63
2023-04-02T05:42:50.063Z,8.64
2023-04-02T05:45:31.918Z,8.64
2023-04-02T05:48:04.162Z,8.66
2023-04-02T05:50:49.207Z,8.66
2023-04-02T05:53:30.770Z,8.67
2023-04-02T05:56:12.705Z,8.68
2023-04-02T05:58:45.732Z,8.68
2023-04-02T06:01:56.203Z,8.66
2023-04-02T06:04:47.756Z,8.65
2023-04-02T06:07:40.629Z,8.64
2023-04-02T06:10:24.828Z,8.63
2023-04-02T06:12:58.241Z,8.61
2023-04-02T06:15:28.016Z,8.60
2023-04-02T06:18:19.691Z,8.59
2023-04-02T06:20:49.198Z,8.58
2023-04-02T06:23:41.499Z,8.58
2023-04-02T06:26:21.410Z,8.58
2023-04-02T06:29:08.737Z,8.57
2023-04-02T06:31:49.420Z,8.57
2023-04-02T06:34:23.636Z,8.58
2023-04-02T06:37:03.605Z,8.59
2023-04-02T06:39:33.389Z,8.60
2023-04-02T06:42:14.619Z,8.61
2023-04-02T06:45:19.732Z,8.62
2023-04-02T06:48:17.327Z,8.63
2023-04-02T06:51:08.106Z,8.64
2023-04-02T06:53:39.822Z,8.64
2023-04-02T06:56:32.156Z,8.64
2023-04-02T06:59:04.570Z,8.66
2023-04-02T07:01:36.593Z,8.67
2023-04-02T07:04:06.368Z,8.69
2023-04-02T07:06:40.117Z,8.71
2023-04-02T07:09:08.484Z,8.74
2023-04-02T07:11:39.633Z,8.77
2023-04-02T07:14:12.079Z,8.78
2023-04-02T07:16:41.684Z,8.79
2023-04-02T07:19:17.617Z,8.80
2023-04-02T07:21:46.562Z,8.81
2023-04-02T07:24:14.857Z,8.81
2023-04-02T07:26:43.106Z,8.81
2023-04-02T07:29:15.034Z,8.80
2023-04-02T07:31:43.433Z,8.80
2023-04-02T07:34:11.749Z,8.82
2023-04-02T07:36:40.186Z,8.83
2023-04-02T07:39:08.388Z,8.84
2023-04-02T07:41:56.508Z,8.86
2023-04-02T07:44:24.826Z,8.88
2023-04-02T07:46:53.500Z,8.88
2023-04-02T07:49:23.025Z,8.90
2023-04-02T07:51:51.750Z,8.91
2023-04-02T07:54:20.719Z,8.93
2023-04-02T07:56:49.481Z,8.93
2023-04-02T07:59:17.885Z,8.93
2023-04-02T08:01:46.463Z,8.94
2023-04-02T08:04:20.944Z,8.96
2023-04-02T08:06:50.703Z,8.94
2023-04-02T08:09:20.107Z,8.92
2023-04-02T08:11:48.811Z,8.89
2023-04-02T08:14:17.296Z,8.90
2023-04-02T08:16:47.681Z,8.92
2023-04-02T08:19:19.271Z,8.94
2023-04-02T08:21:50.734Z,8.95
2023-04-02T08:24:21.854Z,8.97
2023-04-02T08:26:51.675Z,9.00
2023-04-02T08:29:20.727Z,9.02
2023-04-02T08:31:50.704Z,9.04
2023-04-02T08:34:18.933Z,9.05
2023-04-02T08:36:47.020Z,9.06
2023-04-02T08:39:15.756Z,9.04
2023-04-02T08:42:06.691Z,9.02
2023-04-02T08:44:44.694Z,9.01
2023-04-02T08:47:12.994Z,9.00
2023-04-02T08:49:57.931Z,8.99
2023-04-02T08:52:28.034Z,8.99
2023-04-02T08:54:58.172Z,8.98
2023-04-02T08:57:29.478Z,8.96
2023-04-02T09:00:30.751Z,8.94
2023-04-02T09:03:02.935Z,8.91
2023-04-02T09:05:33.834Z,8.90
2023-04-02T09:08:05.179Z,8.90
2023-04-02T09:10:42.998Z,8.87
2023-04-02T09:13:18.215Z,8.84
2023-04-02T09:15:48.417Z,8.80
2023-04-02T09:18:17.729Z,8.79
2023-04-02T09:20:50.281Z,8.80
2023-04-02T09:23:23.887Z,8.81
2023-04-02T09:26:03.661Z,8.82
2023-04-02T09:28:32.687Z,8.83
2023-04-02T09:31:07.085Z,8.82
2023-04-02T09:33:45.720Z,8.81
2023-04-02T09:36:34.327Z,8.80
2023-04-02T09:39:07.174Z,8.79
2023-04-02T09:41:37.123Z,8.80
2023-04-02T09:44:35.164Z,8.81
2023-04-02T09:47:05.906Z,8.81
2023-04-02T09:49:38.176Z,8.79
2023-04-02T09:52:06.688Z,8.79
2023-04-02T09:54:41.875Z,8.80
2023-04-02T09:57:28.210Z,8.80
2023-04-02T10:00:31.913Z,8.78
2023-04-02T10:03:26.345Z,8.78
2023-04-02T10:06:11.602Z,8.79
2023-04-02T10:08:43.538Z,8.81
2023-04-02T10:11:43.649Z,8.83
2023-04-02T10:14:35.628Z,8.85
2023-04-02T10:17:08.793Z,8.85
2023-04-02T10:19:41.546Z,8.84
2023-04-02T10:22:14.058Z,8.85
2023-04-02T10:24:43.497Z,8.86
2023-04-02T10:27:42.589Z,8.84
2023-04-02T10:30:24.131Z,8.81
2023-04-02T10:33:22.165Z,8.79
2023-04-02T10:36:01.064Z,8.76
2023-04-02T10:38:42.676Z,8.75
2023-04-02T10:41:29.781Z,8.73
2023-04-02T10:44:18.873Z,8.73
2023-04-02T10:47:19.048Z,8.73
2023-04-02T10:50:05.481Z,8.74
2023-04-02T10:52:40.461Z,8.75
2023-04-02T10:55:31.902Z,8.74
2023-04-02T10:58:03.290Z,8.75
2023-04-02T11:00:33.337Z,8.76
2023-04-02T11:03:07.224Z,8.78
2023-04-02T11:05:51.459Z,8.80
2023-04-02T11:08:24.620Z,8.82
2023-04-02T11:11:16.682Z,8.83
2023-04-02T11:14:15.827Z,8.86
2023-04-02T11:16:44.994Z,8.89
2023-04-02T11:19:16.629Z,8.91
2023-04-02T11:21:59.854Z,8.93
2023-04-02T11:24:34.385Z,8.96
2023-04-02T11:27:12.149Z,9.00
2023-04-02T11:29:45.744Z,9.04
2023-04-02T11:32:27.661Z,9.08
2023-04-02T11:35:06.588Z,9.12
2023-04-02T11:37:43.977Z,9.16
2023-04-02T11:40:13.913Z,9.18
2023-04-02T11:42:45.462Z,9.21
2023-04-02T11:45:21.065Z,9.23
2023-04-02T11:48:02.567Z,9.25
2023-04-02T11:50:42.416Z,9.27
2023-04-02T11:53:11.030Z,9.29
2023-04-02T11:55:46.598Z,9.30
2023-04-02T11:58:36.493Z,9.31
2023-04-02T12:01:30.242Z,9.32
2023-04-02T12:04:01.378Z,9.32
2023-04-02T12:06:40.200Z,9.33
2023-04-02T12:09:22.579Z,9.32
2023-04-02T12:11:58.541Z,9.30
2023-04-02T12:14:47.045Z,9.28
2023-04-02T12:17:39.710Z,9.26
2023-04-02T12:20:09.331Z,9.26
2023-04-02T12:22:56.636Z,9.25
2023-04-02T12:25:32.318Z,9.25
2023-04-02T12:28:10.110Z,9.25
2023-04-02T12:30:39.698Z,9.23
2023-04-02T12:33:33.755Z,9.23
2023-04-02T12:36:02.385Z,9.22
2023-04-02T12:38:34.030Z,9.22
2023-04-02T12:41:04.738Z,9.21
2023-04-02T12:43:38.098Z,9.21
2023-04-02T12:46:07.898Z,9.20
2023-04-02T12:48:36.583Z,9.20
2023-04-02T12:51:04.793Z,9.19
2023-04-02T12:53:40.463Z,9.17
2023-04-02T12:56:09.310Z,9.17
2023-04-02T12:58:41.029Z,9.17
2023-04-02T13:01:13.977Z,9.15
2023-04-02T13:04:02.122Z,9.13
2023-04-02T13:06:31.124Z,9.13
2023-04-02T13:09:00.654Z,9.12
2023-04-02T13:11:39.407Z,9.12
2023-04-02T13:14:16.985Z,9.11
2023-04-02T13:16:45.413Z,9.09
2023-04-02T13:19:27.158Z,9.06
2023-04-02T13:21:56.041Z,9.03
2023-04-02T13:24:25.827Z,9.01
2023-04-02T13:26:56.121Z,8.99
2023-04-02T13:29:28.591Z,8.99
2023-04-02T13:31:59.631Z,8.98
2023-04-02T13:34:28.367Z,8.97
2023-04-02T13:37:01.925Z,8.98
2023-04-02T13:39:31.044Z,8.97
2023-04-02T13:42:00.516Z,8.97
2023-04-02T13:44:30.267Z,8.98
2023-04-02T13:46:58.642Z,8.96
2023-04-02T13:49:27.666Z,8.92
2023-04-02T13:51:58.963Z,8.90
2023-04-02T13:54:54.607Z,8.88
2023-04-02T13:57:22.878Z,8.84
2023-04-02T13:59:51.488Z,8.83
2023-04-02T14:02:24.796Z,8.82
2023-04-02T14:04:56.912Z,8.82
2023-04-02T14:08:03.967Z,8.83
2023-04-02T14:11:12.252Z,8.84
2023-04-02T14:13:59.014Z,8.84
2023-04-02T14:17:04.366Z,8.81
2023-04-02T14:19:40.595Z,8.77
2023-04-02T14:22:15.613Z,8.75
2023-04-02T14:25:08.763Z,8.72
2023-04-02T14:27:56.323Z,8.71
2023-04-02T14:30:36.791Z,8.70
2023-04-02T14:33:25.971Z,8.68
2023-04-02T14:36:11.570Z,8.66
2023-04-02T14:38:56.247Z,8.64
2023-04-02T14:41:39.809Z,8.61
2023-04-02T14:44:08.034Z,8.60
2023-04-02T14:46:38.344Z,8.60
2023-04-02T14:49:26.886Z,8.58
2023-04-02T14:52:19.194Z,8.57
2023-04-02T14:54:52.492Z,8.57
2023-04-02T14:57:23.945Z,8.58
2023-04-02T14:59:54.356Z,8.60
2023-04-02T15:02:24.493Z,8.63
2023-04-02T15:05:08.167Z,8.65
2023-04-02T15:07:38.871Z,8.65
2023-04-02T15:10:30.065Z,8.64
2023-04-02T15:12:58.787Z,8.63
2023-04-02T15:15:45.699Z,8.64
2023-04-02T15:18:15.936Z,8.63
2023-04-02T15:21:07.483Z,8.62
2023-04-02T15:24:06.124Z,8.61
2023-04-02T15:26:47.834Z,8.58
2023-04-02T15:29:39.681Z,8.56
2023-04-02T15:32:19.182Z,8.54
2023-04-02T15:35:12.390Z,8.54
2023-04-02T15:37:46.756Z,8.54
2023-04-02T15:40:24.260Z,8.53
2023-04-02T15:43:23.602Z,8.51
2023-04-02T15:45:53.980Z,8.51
2023-04-02T15:48:43.876Z,8.51
2023-04-02T15:51:12.006Z,8.51
2023-04-02T15:53:52.080Z,8.49
2023-04-02T15:57:02.694Z,8.48
2023-04-02T15:59:35.150Z,8.47
2023-04-02T16:02:23.986Z,8.47
2023-04-02T16:05:04.019Z,8.47
2023-04-02T16:07:38.337Z,8.46
2023-04-02T16:10:09.825Z,8.45
2023-04-02T16:12:39.054Z,8.42
2023-04-02T16:15:18.394Z,8.40
2023-04-02T16:18:01.737Z,8.41
2023-04-02T16:20:35.176Z,8.39
2023-04-02T16:23:07.373Z,8.39
2023-04-02T16:25:41.369Z,8.39
2023-04-02T16:28:21.804Z,8.39
2023-04-02T16:31:14.424Z,8.38
2023-04-02T16:33:54.671Z,8.37
2023-04-02T16:36:28.850Z,8.36
2023-04-02T16:39:30.546Z,8.35
2023-04-02T16:41:58.903Z,8.35
2023-04-02T16:44:36.012Z,8.34
2023-04-02T16:47:27.251Z,8.34
2023-04-02T16:50:13.617Z,8.33
2023-04-02T16:52:52.013Z,8.32
2023-04-02T16:55:26.458Z,8.32
2023-04-02T16:57:54.819Z,8.32
2023-04-02T17:00:44.252Z,8.32
2023-04-02T17:03:53.657Z,8.33
2023-04-02T17:06:45.741Z,8.32
2023-04-02T17:09:37.180Z,8.30
2023-04-02T17:12:13.842Z,8.26
2023-04-02T17:14:59.055Z,8.24
2023-04-02T17:17:30.217Z,8.21
2023-04-02T17:20:00.367Z,8.19
2023-04-02T17:22:29.164Z,8.14
2023-04-02T17:24:58.378Z,8.08
2023-04-02T17:27:33.202Z,8.04
2023-04-02T17:30:24.165Z,7.98
2023-04-02T17:32:55.106Z,7.91
2023-04-02T17:35:41.897Z,7.84
2023-04-02T17:38:22.198Z,7.76
2023-04-02T17:40:50.484Z,7.68
2023-04-02T17:43:37.520Z,7.62
2023-04-02T17:46:31.249Z,7.56
2023-04-02T17:49:02.343Z,7.42
2023-04-02T17:51:39.018Z,7.03
2023-04-02T17:54:33.574Z,6.95
2023-04-02T17:57:13.503Z,6.92
2023-04-02T18:00:43.507Z,6.87
2023-04-02T18:03:43.667Z,6.84
2023-04-02T18:06:16.293Z,6.82
2023-04-02T18:09:04.537Z,6.75
2023-04-02T18:12:01.697Z,6.72
2023-04-02T18:14:49.631Z,6.68
2023-04-02T18:17:54.464Z,6.42
2023-04-02T18:20:27.640Z,6.33
2023-04-02T18:23:05.216Z,6.31
2023-04-02T18:25:59.704Z,6.29
2023-04-02T18:29:04.929Z,6.29
2023-04-02T18:31:46.520Z,6.27
2023-04-02T18:34:33.704Z,6.25
2023-04-02T18:37:20.003Z,6.23
2023-04-02T18:40:12.917Z,6.22
2023-04-02T18:43:06.925Z,6.20
2023-04-02T18:45:42.937Z,6.17
2023-04-02T18:48:26.975Z,6.15
2023-04-02T18:50:55.813Z,6.13
2023-04-02T18:53:25.000Z,6.11
2023-04-02T18:55:58.139Z,6.09
2023-04-02T18:58:42.964Z,6.08
2023-04-02T19:01:13.756Z,6.07
2023-04-02T19:04:02.658Z,6.06
2023-04-02T19:06:43.059Z,6.05
2023-04-02T19:09:20.831Z,6.03
2023-04-02T19:11:53.543Z,6.02
2023-04-02T19:14:23.808Z,6.01
2023-04-02T19:17:02.571Z,6.00
2023-04-02T19:19:39.945Z,6.01
2023-04-02T19:23:06.489Z,6.01
2023-04-02T19:25:41.746Z,6.00
2023-04-02T19:28:17.922Z,6.00
2023-04-02T19:31:30.520Z,6.01
2023-04-02T19:34:01.411Z,6.03
2023-04-02T19:36:41.701Z,6.03
2023-04-02T19:39:18.086Z,6.02
2023-04-02T19:42:12.513Z,6.03
2023-04-02T19:44:47.080Z,6.04
2023-04-02T19:47:16.642Z,6.03
2023-04-02T19:49:48.050Z,6.03
2023-04-02T19:52:17.289Z,6.02
2023-04-02T19:54:46.253Z,6.01
2023-04-02T19:57:16.007Z,6.00
2023-04-02T19:59:51.400Z,5.99
2023-04-02T20:02:20.318Z,5.97
2023-04-02T20:04:48.558Z,5.94
2023-04-02T20:07:16.736Z,5.94
2023-04-02T20:09:45.241Z,5.92
2023-04-02T20:12:15.095Z,5.89
2023-04-02T20:14:44.227Z,5.89
2023-04-02T20:17:13.298Z,5.91
2023-04-02T20:19:41.605Z,5.90
2023-04-02T20:22:09.816Z,5.89
2023-04-02T20:24:38.193Z,5.88
2023-04-02T20:27:06.803Z,5.89
2023-04-02T20:29:35.835Z,5.88
2023-04-02T20:32:03.995Z,5.87
2023-04-02T20:34:32.644Z,5.88
2023-04-02T20:37:01.203Z,5.88
2023-04-02T20:39:29.825Z,5.86
2023-04-02T20:42:02.356Z,5.85
2023-04-02T20:44:30.627Z,5.83
2023-04-02T20:46:59.312Z,5.82
2023-04-02T20:49:27.632Z,5.81
2023-04-02T20:51:56.739Z,5.80
2023-04-02T20:54:24.874Z,5.78
2023-04-02T20:56:53.114Z,5.77
2023-04-02T20:59:22.177Z,5.77
2023-04-02T21:01:50.537Z,5.76
2023-04-02T21:04:18.922Z,5.76
2023-04-02T21:06:47.351Z,5.76
2023-04-02T21:09:17.524Z,5.74
2023-04-02T21:11:46.444Z,5.75
2023-04-02T21:14:14.727Z,5.76
2023-04-02T21:16:42.868Z,5.75
2023-04-02T21:19:11.320Z,5.73
2023-04-02T21:21:40.554Z,5.72
2023-04-02T21:24:09.640Z,5.72
2023-04-02T21:26:40.397Z,5.71
2023-04-02T21:29:08.551Z,5.70
2023-04-02T21:31:38.788Z,5.71
2023-04-02T21:34:07.555Z,5.71
2023-04-02T21:36:37.962Z,5.71
2023-04-02T21:39:21.288Z,5.71
2023-04-02T21:41:50.790Z,5.69
2023-04-02T21:44:21.593Z,5.68
2023-04-02T21:46:51.823Z,5.67
2023-04-02T21:49:26.407Z,5.64
2023-04-02T21:51:54.941Z,5.61
2023-04-02T21:54:26.166Z,5.61
2023-04-02T21:56:54.572Z,5.61
2023-04-02T21:59:22.999Z,5.61
2023-04-02T22:01:52.123Z,5.58
2023-04-02T22:04:24.941Z,5.58
2023-04-02T22:06:53.424Z,5.56
2023-04-02T22:09:23.139Z,5.53
2023-04-02T22:11:54.646Z,5.50
2023-04-02T22:14:23.372Z,5.51
2023-04-02T22:16:52.300Z,5.49
2023-04-02T22:19:21.658Z,5.45
2023-04-02T22:21:50.031Z,5.43
2023-04-02T22:24:25.514Z,5.43
2023-04-02T22:26:54.293Z,5.43
2023-04-02T22:29:22.473Z,5.41
2023-04-02T22:31:50.708Z,5.40
2023-04-02T22:34:19.147Z,5.41
2023-04-02T22:36:47.491Z,5.42
2023-04-02T22:39:17.064Z,5.42
2023-04-02T22:41:45.490Z,5.42
2023-04-02T22:44:14.508Z,5.43
2023-04-02T22:46:43.323Z,5.42
2023-04-02T22:49:11.852Z,5.42
2023-04-02T22:51:40.134Z,5.43
2023-04-02T22:54:08.782Z,5.45
2023-04-02T22:56:37.660Z,5.46
2023-04-02T22:59:06.109Z,5.45
2023-04-02T23:01:35.613Z,5.44
2023-04-02T23:04:05.431Z,5.46
2023-04-02T23:06:34.961Z,5.46
2023-04-02T23:09:04.280Z,5.45
2023-04-02T23:11:34.892Z,5.45
2023-04-02T23:14:03.268Z,5.46
2023-04-02T23:16:31.673Z,5.46
2023-04-02T23:19:01.346Z,5.45
2023-04-02T23:21:29.762Z,5.43
2023-04-02T23:23:57.920Z,5.44
2023-04-02T23:26:29.704Z,5.44
2023-04-02T23:28:59.356Z,5.43
2023-04-02T23:31:28.183Z,5.42
2023-04-02T23:33:56.757Z,5.42
2023-04-02T23:36:27.194Z,5.41
2023-04-02T23:38:57.128Z,5.37
2023-04-02T23:41:27.119Z,5.34
2023-04-02T23:43:56.003Z,5.32
2023-04-02T23:46:24.511Z,5.31
2023-04-02T23:48:52.765Z,5.31
2023-04-02T23:51:22.350Z,5.30
2023-04-02T23:53:50.837Z,5.29
2023-04-02T23:56:22.898Z,5.28
2023-04-02T23:58:51.265Z,5.26
